Time;durP1;ratioP1;P1;durP2;ratioP2;P2;SDS_P1;SDS_P2;PMS_P1;PMS_P2;Temp;Humidity;BMP_temperature;BMP_pressure;BME280_temperature;BME280_humidity;BME280_pressure;Samples;Min_cycle;Max_cycle;Signal;HPM_P1;HPM_P2
2021/01/29 00:00:18;;;;;;;3.55;1.25;;;1.00;78.90;;;;;;4979779;28;20030;-60
2021/01/29 00:02:44;;;;;;;2.47;1.30;;;1.00;78.80;;;;;;4979994;28;20069;-60
2021/01/29 00:05:11;;;;;;;3.10;1.20;;;0.90;79.00;;;;;;4978511;28;20550;-60
2021/01/29 00:07:37;;;;;;;2.53;1.50;;;0.90;80.10;;;;;;4979550;28;20050;-60
2021/01/29 00:10:04;;;;;;;2.97;1.15;;;0.90;80.20;;;;;;4978853;28;20038;-59
2021/01/29 00:12:30;;;;;;;4.32;1.95;;;0.90;79.90;;;;;;4979484;28;20069;-59
2021/01/29 00:14:56;;;;;;;3.97;1.48;;;0.80;79.80;;;;;;4979570;28;20121;-59
2021/01/29 00:17:22;;;;;;;3.40;1.27;;;0.80;79.90;;;;;;4979352;28;20566;-60
2021/01/29 00:19:47;;;;;;;4.28;1.40;;;0.80;79.90;;;;;;4979071;28;20105;-60
2021/01/29 00:22:13;;;;;;;4.07;1.55;;;0.80;80.00;;;;;;4978906;28;20033;-60
2021/01/29 00:24:39;;;;;;;3.05;1.63;;;0.80;79.80;;;;;;4979138;28;20125;-59
2021/01/29 00:27:05;;;;;;;2.00;1.42;;;0.80;80.10;;;;;;4978046;28;20038;-59
2021/01/29 00:29:32;;;;;;;1.58;1.33;;;0.80;80.40;;;;;;4979075;28;20034;-59
2021/01/29 00:31:58;;;;;;;2.90;1.70;;;0.80;80.40;;;;;;4979288;28;20100;-60
2021/01/29 00:34:24;;;;;;;1.92;1.38;;;0.80;80.80;;;;;;4976402;28;20839;-59
2021/01/29 00:36:50;;;;;;;1.77;1.20;;;0.90;80.60;;;;;;4976415;28;20034;-59
2021/01/29 00:39:16;;;;;;;4.43;1.65;;;1.00;80.30;;;;;;4977904;28;20041;-60
2021/01/29 00:41:42;;;;;;;7.40;2.15;;;1.10;79.80;;;;;;4976131;28;20042;-59
2021/01/29 00:44:07;;;;;;;2.03;1.35;;;1.10;79.40;;;;;;4976714;28;20053;-59
2021/01/29 00:46:33;;;;;;;2.35;1.30;;;1.10;79.80;;;;;;4978532;28;20497;-59
2021/01/29 00:48:59;;;;;;;5.03;1.50;;;1.20;80.10;;;;;;4978085;28;20091;-59
2021/01/29 00:51:25;;;;;;;3.63;1.25;;;1.30;79.90;;;;;;4977518;28;20546;-59
2021/01/29 00:53:51;;;;;;;3.97;1.70;;;1.30;79.80;;;;;;4978467;28;20417;-60
2021/01/29 00:56:28;;;;;;;1.92;1.40;;;1.40;79.60;;;;;;4976357;28;20041;-60
2021/01/29 00:59:02;;;;;;;2.72;2.05;;;1.40;79.00;;;;;;4976866;28;20402;-59
2021/01/29 01:01:54;;;;;;;3.03;1.40;;;1.40;78.30;;;;;;4976910;28;20806;-59
2021/01/29 01:04:20;;;;;;;2.25;0.93;;;1.50;77.80;;;;;;4961971;28;20038;-59
2021/01/29 01:06:46;;;;;;;2.20;1.30;;;1.50;78.00;;;;;;4991263;28;20037;-60
2021/01/29 01:09:30;;;;;;;2.20;1.25;;;1.40;78.20;;;;;;4978115;28;20101;-59
2021/01/29 01:11:56;;;;;;;3.08;1.40;;;1.50;78.50;;;;;;4977768;28;20030;-59
2021/01/29 01:14:45;;;;;;;2.40;1.30;;;1.50;78.60;;;;;;4977694;28;20725;-59
2021/01/29 01:17:24;;;;;;;4.25;1.50;;;1.50;78.40;;;;;;4976179;28;20061;-59
2021/01/29 01:20:09;;;;;;;2.50;1.55;;;1.50;78.60;;;;;;4977990;28;20026;-60
2021/01/29 01:22:35;;;;;;;3.95;2.00;;;1.60;78.90;;;;;;4976327;28;20031;-59
2021/01/29 01:25:21;;;;;;;2.63;1.30;;;1.60;78.60;;;;;;4975976;28;20735;-59
2021/01/29 01:27:49;;;;;;;5.80;1.60;;;1.60;78.60;;;;;;4975909;28;20037;-60
2021/01/29 01:30:43;;;;;;;4.85;1.63;;;1.60;78.30;;;;;;4976722;28;20137;-59
2021/01/29 01:33:17;;;;;;;2.20;1.65;;;1.60;78.00;;;;;;4976961;28;20038;-59
2021/01/29 01:36:01;;;;;;;4.10;1.35;;;1.60;77.90;;;;;;4977202;28;20111;-59
2021/01/29 01:38:35;;;;;;;5.40;1.70;;;1.70;77.90;;;;;;4960260;28;20125;-59
2021/01/29 01:41:02;;;;;;;3.75;1.58;;;1.70;77.60;;;;;;4977138;28;20049;-59
2021/01/29 01:43:38;;;;;;;6.18;2.17;;;1.70;77.50;;;;;;4975608;28;20089;-60
2021/01/29 01:46:30;;;;;;;3.50;2.08;;;1.70;77.90;;;;;;4964414;28;20101;-59
2021/01/29 01:49:26;;;;;;;6.05;2.35;;;1.70;77.70;;;;;;4976333;28;20177;-60
2021/01/29 01:52:24;;;;;;;5.30;1.92;;;1.70;77.40;;;;;;4975661;28;20030;-60
2021/01/29 01:55:22;;;;;;;3.45;1.70;;;1.70;77.60;;;;;;4955385;28;20129;-60
2021/01/29 01:57:58;;;;;;;3.85;1.60;;;1.80;78.00;;;;;;4975960;28;20038;-59
2021/01/29 02:00:52;;;;;;;3.85;1.90;;;1.80;77.90;;;;;;4975965;28;20117;-59
2021/01/29 02:03:29;;;;;;;1.75;1.40;;;1.80;77.70;;;;;;4974163;28;20760;-59
2021/01/29 02:06:14;;;;;;;1.77;1.60;;;1.80;78.20;;;;;;4975962;28;20585;-60
2021/01/29 02:09:11;;;;;;;3.05;1.40;;;1.80;78.20;;;;;;4940615;28;20174;-60
2021/01/29 02:11:54;;;;;;;3.42;1.52;;;1.80;78.20;;;;;;4975522;28;20042;-60
2021/01/29 02:14:42;;;;;;;6.28;1.85;;;1.70;78.30;;;;;;4977941;28;20032;-59
2021/01/29 02:17:29;;;;;;;1.73;1.50;;;1.70;78.30;;;;;;4976423;28;20105;-59
2021/01/29 02:20:34;;;;;;;3.47;1.75;;;1.70;78.70;;;;;;4977528;28;20100;-59
2021/01/29 02:23:39;;;;;;;2.58;1.58;;;1.70;78.50;;;;;;4975596;28;20028;-59
2021/01/29 02:26:35;;;;;;;2.58;1.70;;;1.80;78.70;;;;;;4975461;28;20061;-60
2021/01/29 02:29:15;;;;;;;2.92;1.77;;;1.80;78.10;;;;;;4975557;28;20107;-60
2021/01/29 02:31:55;;;;;;;1.98;1.50;;;1.80;78.10;;;;;;4975934;28;20027;-59
2021/01/29 02:34:53;;;;;;;3.35;1.80;;;1.80;77.90;;;;;;4970421;28;20860;-60
2021/01/29 02:37:54;;;;;;;2.58;1.45;;;1.80;77.70;;;;;;4976734;28;20495;-59
2021/01/29 02:40:36;;;;;;;3.70;2.38;;;1.80;78.20;;;;;;4972740;28;20038;-59
2021/01/29 02:43:22;;;;;;;3.85;1.83;;;1.80;78.10;;;;;;4975808;28;20030;-59
2021/01/29 02:46:29;;;;;;;2.40;1.65;;;1.80;77.80;;;;;;4977062;28;20173;-59
2021/01/29 02:49:17;;;;;;;2.08;1.48;;;1.70;77.80;;;;;;4975227;28;20042;-59
2021/01/29 02:52:27;;;;;;;5.13;1.90;;;1.70;77.70;;;;;;4976416;28;20073;-59
2021/01/29 02:55:34;;;;;;;3.67;2.13;;;1.70;77.60;;;;;;4960569;28;20093;-59
2021/01/29 02:58:18;;;;;;;3.95;1.45;;;1.70;77.70;;;;;;4961247;28;20465;-59
2021/01/29 03:01:15;;;;;;;3.13;1.92;;;1.70;77.90;;;;;;4976963;28;20282;-59
2021/01/29 03:03:50;;;;;;;3.63;1.85;;;1.70;77.90;;;;;;4975316;28;20041;-60
2021/01/29 03:06:48;;;;;;;4.43;1.70;;;1.70;77.90;;;;;;4976640;28;20052;-59
2021/01/29 03:09:19;;;;;;;5.10;1.92;;;1.70;78.20;;;;;;4976480;28;20034;-60
2021/01/29 03:12:14;;;;;;;3.50;1.58;;;1.70;78.60;;;;;;4976961;28;20125;-59
2021/01/29 03:15:19;;;;;;;1.85;1.40;;;1.70;78.50;;;;;;4977042;28;20053;-59
2021/01/29 03:18:20;;;;;;;3.13;1.80;;;1.70;78.30;;;;;;4956224;28;20131;-60
2021/01/29 03:21:13;;;;;;;5.85;1.90;;;1.70;78.60;;;;;;4976724;28;20077;-59
2021/01/29 03:24:06;;;;;;;2.60;1.65;;;1.70;78.10;;;;;;4976093;28;20161;-60
2021/01/29 03:27:00;;;;;;;2.45;1.70;;;1.80;78.20;;;;;;4976327;28;20177;-59
2021/01/29 03:29:49;;;;;;;4.82;2.72;;;1.80;78.00;;;;;;4976070;28;20101;-59
2021/01/29 03:32:36;;;;;;;3.47;1.70;;;1.80;77.20;;;;;;4976340;28;20104;-59
2021/01/29 03:35:28;;;;;;;2.17;1.73;;;1.80;77.30;;;;;;4975907;28;20081;-58
2021/01/29 03:38:25;;;;;;;2.20;1.67;;;1.70;77.80;;;;;;4976350;28;20112;-59
2021/01/29 03:41:29;;;;;;;3.65;1.83;;;1.70;78.00;;;;;;4976547;28;20085;-59
2021/01/29 03:44:31;;;;;;;5.85;1.60;;;1.60;78.00;;;;;;4976439;28;20061;-59
2021/01/29 03:47:31;;;;;;;5.68;1.75;;;1.60;77.90;;;;;;4976120;28;20065;-59
2021/01/29 03:50:23;;;;;;;4.90;1.77;;;1.60;78.20;;;;;;4978697;28;20056;-59
2021/01/29 03:53:10;;;;;;;3.45;2.40;;;1.50;78.00;;;;;;4977004;28;20093;-59
2021/01/29 03:56:25;;;;;;;3.83;1.33;;;1.50;78.00;;;;;;4979270;28;20152;-59
2021/01/29 03:59:36;;;;;;;3.17;2.03;;;1.50;78.10;;;;;;4972674;28;20041;-59
2021/01/29 04:02:40;;;;;;;3.17;1.42;;;1.40;78.10;;;;;;4979506;28;20049;-59
2021/01/29 04:06:12;;;;;;;2.58;1.50;;;1.40;77.80;;;;;;4942531;28;20066;-60
2021/01/29 04:09:08;;;;;;;4.43;1.70;;;1.40;78.20;;;;;;4979476;28;20053;-59
2021/01/29 04:12:02;;;;;;;3.85;2.13;;;1.30;78.40;;;;;;4957495;28;20874;-59
2021/01/29 04:15:10;;;;;;;4.68;2.10;;;1.30;78.60;;;;;;4963238;28;20049;-59
2021/01/29 04:17:48;;;;;;;2.72;1.60;;;1.30;78.90;;;;;;4978547;28;20069;-59
2021/01/29 04:20:27;;;;;;;1.42;1.08;;;1.30;78.90;;;;;;4979675;28;20725;-59
2021/01/29 04:22:55;;;;;;;2.95;1.65;;;1.30;78.70;;;;;;4979078;28;20045;-59
2021/01/29 04:25:34;;;;;;;4.88;1.65;;;1.30;78.80;;;;;;4978942;28;20489;-59
2021/01/29 04:28:07;;;;;;;3.72;2.10;;;1.40;78.90;;;;;;4979567;28;20030;-59
2021/01/29 04:30:35;;;;;;;1.60;1.27;;;1.40;78.60;;;;;;4979591;28;20125;-59
2021/01/29 04:33:12;;;;;;;2.80;1.60;;;1.30;78.10;;;;;;4979562;28;20037;-59
2021/01/29 04:35:39;;;;;;;3.50;1.88;;;1.40;78.30;;;;;;4978775;28;20062;-58
2021/01/29 04:38:35;;;;;;;1.80;1.30;;;1.30;78.30;;;;;;4979266;28;20038;-59
2021/01/29 04:41:37;;;;;;;2.35;1.40;;;1.30;78.30;;;;;;4979118;28;20034;-59
2021/01/29 04:44:45;;;;;;;2.20;1.50;;;1.30;78.40;;;;;;4962644;28;20050;-59
2021/01/29 04:47:18;;;;;;;3.47;1.73;;;1.30;78.60;;;;;;4974049;28;20046;-60
2021/01/29 04:50:07;;;;;;;1.65;1.20;;;1.30;78.60;;;;;;4979183;28;20054;-60
2021/01/29 04:52:52;;;;;;;5.10;1.85;;;1.30;79.00;;;;;;4978909;28;20030;-59
2021/01/29 04:55:55;;;;;;;4.88;1.60;;;1.30;78.00;;;;;;4978802;28;20045;-59
2021/01/29 04:58:23;;;;;;;3.15;1.60;;;1.30;78.00;;;;;;4979151;28;20092;-59
2021/01/29 05:01:34;;;;;;;;;;;1.20;78.40;;;;;;4978080;28;20597;-59
2021/01/29 05:04:41;;;;;;;4.25;2.60;;;1.10;77.80;;;;;;4978952;28;19968;-59
2021/01/29 05:08:09;;;;;;;9.65;4.30;;;1.10;78.00;;;;;;4978362;28;20081;-59
2021/01/29 05:11:04;;;;;;;4.88;2.38;;;1.10;78.70;;;;;;4950917;28;20042;-59
2021/01/29 05:13:46;;;;;;;3.40;2.30;;;1.10;79.10;;;;;;4978341;28;20965;-59
2021/01/29 05:16:25;;;;;;;3.90;2.30;;;1.10;79.30;;;;;;4978040;28;20042;-59
2021/01/29 05:19:10;;;;;;;3.50;2.10;;;1.20;79.00;;;;;;4978619;28;20529;-59
2021/01/29 05:21:58;;;;;;;5.00;2.50;;;1.20;78.70;;;;;;4979097;28;20049;-59
2021/01/29 05:24:38;;;;;;;3.83;2.28;;;1.20;78.80;;;;;;4977729;28;20156;-59
2021/01/29 05:27:38;;;;;;;7.15;2.00;;;1.20;78.80;;;;;;4978839;28;20565;-59
2021/01/29 05:30:07;;;;;;;2.92;1.75;;;1.20;79.10;;;;;;4976326;28;20038;-59
2021/01/29 05:33:00;;;;;;;3.38;1.83;;;1.20;79.20;;;;;;4978741;28;20165;-59
2021/01/29 05:35:41;;;;;;;2.95;1.85;;;1.20;79.40;;;;;;4977800;28;20053;-59
2021/01/29 05:38:25;;;;;;;3.72;1.48;;;1.10;79.50;;;;;;4978284;28;20065;-59
2021/01/29 05:41:14;;;;;;;1.95;1.15;;;1.20;79.70;;;;;;4978120;28;20033;-59
2021/01/29 05:44:10;;;;;;;1.60;1.35;;;1.20;79.70;;;;;;4978245;28;20104;-59
2021/01/29 05:47:13;;;;;;;6.00;2.08;;;1.20;80.00;;;;;;4967495;28;20054;-59
2021/01/29 05:49:47;;;;;;;3.22;1.75;;;1.20;78.80;;;;;;4977504;28;20046;-59
2021/01/29 05:53:11;;;;;;;2.17;1.40;;;1.20;78.60;;;;;;4977086;28;20478;-59
2021/01/29 05:56:11;;;;;;;2.28;1.25;;;1.10;78.90;;;;;;4954654;28;20478;-59
2021/01/29 05:59:09;;;;;;;3.88;1.90;;;1.10;79.20;;;;;;4952647;28;20153;-59
2021/01/29 06:01:37;;;;;;;2.50;1.45;;;1.10;79.00;;;;;;4973137;28;20077;-59
2021/01/29 06:04:30;;;;;;;2.70;1.60;;;1.00;79.00;;;;;;4977433;28;20030;-59
2021/01/29 06:06:56;;;;;;;4.65;2.03;;;0.90;79.50;;;;;;4977768;28;20483;-59
2021/01/29 06:09:49;;;;;;;4.00;1.50;;;0.90;79.70;;;;;;4978741;28;20077;-59
2021/01/29 06:12:30;;;;;;;3.15;1.55;;;0.90;80.20;;;;;;4972664;28;20053;-59
2021/01/29 06:15:19;;;;;;;4.47;2.22;;;1.00;79.70;;;;;;4977435;28;20038;-59
2021/01/29 06:17:48;;;;;;;2.72;1.70;;;1.10;78.90;;;;;;4978046;28;20033;-59
2021/01/29 06:20:41;;;;;;;2.65;1.48;;;1.10;79.00;;;;;;4978032;28;20120;-60
2021/01/29 06:23:32;;;;;;;6.65;2.47;;;1.20;79.00;;;;;;4977074;28;20104;-60
2021/01/29 06:26:16;;;;;;;4.03;1.45;;;1.20;78.90;;;;;;4977727;28;20537;-58
2021/01/29 06:28:56;;;;;;;4.68;1.77;;;1.20;78.80;;;;;;4977846;28;20088;-58
2021/01/29 06:32:11;;;;;;;3.05;1.88;;;1.30;78.50;;;;;;4978172;28;20041;-60
2021/01/29 06:35:01;;;;;;;3.25;1.95;;;1.30;78.30;;;;;;4975165;28;20121;-59
2021/01/29 06:37:38;;;;;;;3.05;1.70;;;1.40;77.90;;;;;;4977562;28;20034;-60
2021/01/29 06:40:30;;;;;;;4.03;1.63;;;1.40;77.80;;;;;;4977361;28;20034;-60
2021/01/29 06:43:37;;;;;;;7.75;2.33;;;1.40;78.00;;;;;;4977791;28;20034;-60
2021/01/29 06:46:30;;;;;;;4.05;1.55;;;1.50;77.30;;;;;;4958601;28;20056;-60
2021/01/29 06:49:19;;;;;;;3.42;2.00;;;1.50;78.10;;;;;;4977381;28;20038;-60
2021/01/29 06:51:59;;;;;;;3.88;1.70;;;1.40;77.30;;;;;;4976688;28;20039;-60
2021/01/29 06:54:53;;;;;;;4.03;2.00;;;1.30;77.40;;;;;;4975922;28;20716;-59
2021/01/29 06:57:27;;;;;;;3.88;2.40;;;1.30;77.40;;;;;;4972303;28;20085;-60
2021/01/29 07:00:11;;;;;;;7.70;2.58;;;1.10;77.70;;;;;;4977392;28;20049;-60
2021/01/29 07:02:59;;;;;;;6.00;2.78;;;1.10;78.70;;;;;;4977783;28;20490;-60
2021/01/29 07:05:37;;;;;;;3.20;2.15;;;1.00;78.50;;;;;;4973353;28;20066;-59
2021/01/29 07:08:38;;;;;;;3.75;2.30;;;1.10;78.20;;;;;;4976851;28;20708;-60
2021/01/29 07:11:16;;;;;;;7.85;2.47;;;1.30;77.90;;;;;;4977822;28;20042;-60
2021/01/29 07:13:49;;;;;;;4.20;2.55;;;1.30;77.90;;;;;;4977015;28;20145;-60
2021/01/29 07:16:38;;;;;;;7.03;2.88;;;1.40;77.50;;;;;;4970990;28;20076;-60
2021/01/29 07:19:49;;;;;;;4.70;2.17;;;1.60;77.10;;;;;;4964957;28;20872;-60
2021/01/29 07:22:33;;;;;;;5.95;2.65;;;1.50;76.20;;;;;;4977116;28;20042;-59
2021/01/29 07:25:08;;;;;;;5.30;2.50;;;1.30;76.20;;;;;;4993776;28;20125;-59
2021/01/29 07:28:04;;;;;;;6.55;2.47;;;1.30;77.20;;;;;;4981129;28;20667;-60
2021/01/29 07:30:39;;;;;;;5.13;2.35;;;1.20;77.40;;;;;;4977303;28;20031;-60
2021/01/29 07:33:46;;;;;;;4.78;2.47;;;1.30;77.80;;;;;;4980590;28;20038;-59
2021/01/29 07:36:27;;;;;;;7.50;3.42;;;1.40;77.50;;;;;;4976925;28;20038;-59
2021/01/29 07:39:09;;;;;;;8.15;4.05;;;1.50;76.30;;;;;;4980654;28;20038;-58
2021/01/29 07:41:46;;;;;;;7.57;3.08;;;1.60;76.60;;;;;;4978698;28;20030;-63
2021/01/29 07:44:15;;;;;;;7.15;3.47;;;1.60;76.40;;;;;;4979273;28;20064;-59
2021/01/29 07:46:53;;;;;;;9.45;3.10;;;1.70;76.20;;;;;;4980039;28;20026;-59
2021/01/29 07:49:35;;;;;;;5.47;2.67;;;1.70;75.30;;;;;;4975601;28;20050;-60
2021/01/29 07:52:23;;;;;;;8.15;2.97;;;1.70;74.90;;;;;;4978154;28;20795;-59
2021/01/29 07:55:10;;;;;;;3.10;2.50;;;1.80;75.20;;;;;;4980800;28;20106;-59
2021/01/29 07:57:53;;;;;;;5.57;2.97;;;1.80;75.60;;;;;;4976738;28;20030;-59
2021/01/29 08:00:49;;;;;;;6.03;2.80;;;1.90;75.30;;;;;;4980725;28;20042;-60
2021/01/29 08:03:26;;;;;;;10.20;3.05;;;2.00;74.90;;;;;;4974105;28;20026;-59
2021/01/29 08:06:07;;;;;;;5.47;2.92;;;1.90;73.20;;;;;;4979734;28;20026;-59
2021/01/29 08:09:07;;;;;;;8.65;2.60;;;1.70;74.10;;;;;;4979657;28;20038;-60
2021/01/29 08:11:36;;;;;;;4.93;2.30;;;1.60;74.70;;;;;;4978288;28;20043;-61
2021/01/29 08:14:33;;;;;;;7.22;2.65;;;1.50;75.90;;;;;;4979575;28;20410;-59
2021/01/29 08:17:36;;;;;;;9.25;2.90;;;1.50;75.20;;;;;;4977430;28;20035;-59
2021/01/29 08:20:21;;;;;;;6.43;2.65;;;1.50;75.30;;;;;;4979088;28;20133;-59
2021/01/29 08:22:58;;;;;;;6.15;2.80;;;1.60;75.50;;;;;;4979921;28;20526;-59
2021/01/29 08:25:26;;;;;;;5.93;2.92;;;1.50;74.50;;;;;;4973265;28;20062;-60
2021/01/29 08:28:13;;;;;;;9.00;2.10;;;1.30;75.50;;;;;;4978687;28;20285;-59
2021/01/29 08:31:15;;;;;;;4.43;2.15;;;1.20;76.40;;;;;;4979577;28;20138;-59
2021/01/29 08:34:18;;;;;;;8.32;2.78;;;1.20;75.50;;;;;;4979675;28;20048;-59
2021/01/29 08:37:10;;;;;;;6.47;2.10;;;1.40;75.50;;;;;;4976984;28;20030;-59
2021/01/29 08:39:48;;;;;;;4.38;2.33;;;1.40;75.70;;;;;;4979399;28;20038;-59
2021/01/29 08:42:37;;;;;;;3.28;2.22;;;1.30;75.50;;;;;;4978632;28;20090;-59
2021/01/29 08:45:12;;;;;;;5.18;2.13;;;1.20;75.30;;;;;;4976857;28;20042;-58
2021/01/29 08:47:51;;;;;;;3.50;2.53;;;1.10;75.30;;;;;;4978518;28;20399;-63
2021/01/29 08:51:01;;;;;;;10.27;2.78;;;1.20;75.60;;;;;;4976020;28;20043;-64
2021/01/29 08:53:49;;;;;;;5.07;2.35;;;1.30;75.20;;;;;;4960202;28;20057;-59
2021/01/29 08:56:53;;;;;;;6.68;2.25;;;1.30;74.80;;;;;;4968396;28;20061;-60
2021/01/29 08:59:23;;;;;;;4.40;2.53;;;1.20;75.30;;;;;;4971155;28;20856;-59
2021/01/29 09:01:51;;;;;;;4.95;2.28;;;1.20;75.20;;;;;;4978769;28;20052;-59
2021/01/29 09:04:43;;;;;;;5.50;3.00;;;1.30;75.70;;;;;;4977430;28;20101;-60
2021/01/29 09:07:22;;;;;;;4.65;2.35;;;1.50;75.10;;;;;;4977287;28;20558;-60
2021/01/29 09:09:49;;;;;;;4.70;2.17;;;1.70;73.40;;;;;;4978056;28;20042;-60
2021/01/29 09:12:24;;;;;;;5.43;2.47;;;1.90;73.20;;;;;;4971672;28;20136;-59
2021/01/29 09:15:17;;;;;;;6.30;2.55;;;1.90;72.40;;;;;;4978079;28;20030;-60
2021/01/29 09:17:58;;;;;;;5.70;2.45;;;1.80;73.00;;;;;;4977572;28;20554;-60
2021/01/29 09:20:29;;;;;;;4.43;2.80;;;1.90;72.10;;;;;;4973056;28;20046;-60
2021/01/29 09:23:03;;;;;;;4.45;2.75;;;2.00;72.30;;;;;;4977738;28;20062;-60
2021/01/29 09:26:04;;;;;;;6.18;2.78;;;2.10;72.20;;;;;;4977797;28;20033;-60
2021/01/29 09:28:41;;;;;;;4.00;1.92;;;2.10;71.30;;;;;;4944094;28;20046;-60
2021/01/29 09:31:10;;;;;;;6.78;2.40;;;2.20;71.10;;;;;;4977651;28;20124;-60
2021/01/29 09:33:52;;;;;;;6.30;2.30;;;2.30;70.60;;;;;;4977299;28;20042;-60
2021/01/29 09:36:24;;;;;;;5.28;2.40;;;2.40;70.30;;;;;;4976360;28;20506;-60
2021/01/29 09:38:54;;;;;;;2.97;1.73;;;2.20;69.80;;;;;;4976590;28;20821;-59
2021/01/29 09:41:32;;;;;;;3.85;2.20;;;2.10;70.00;;;;;;4977429;28;20077;-59
2021/01/29 09:44:13;;;;;;;4.63;2.50;;;2.20;70.60;;;;;;4977430;28;20414;-59
2021/01/29 09:46:41;;;;;;;3.97;1.95;;;2.10;69.90;;;;;;4977437;28;20049;-59
2021/01/29 09:49:11;;;;;;;6.43;1.95;;;2.00;69.50;;;;;;4976900;28;20038;-59
2021/01/29 09:51:52;;;;;;;7.85;2.33;;;2.20;70.30;;;;;;4977228;28;20030;-59
2021/01/29 09:54:52;;;;;;;7.20;3.00;;;2.30;68.60;;;;;;4976904;28;20719;-59
2021/01/29 09:57:31;;;;;;;5.22;1.80;;;2.20;68.50;;;;;;4970627;28;20506;-65
2021/01/29 10:00:02;;;;;;;8.45;2.65;;;2.20;69.80;;;;;;4975401;28;20042;-59
2021/01/29 10:03:02;;;;;;;4.15;2.13;;;2.00;68.30;;;;;;4975530;28;20056;-59
2021/01/29 10:05:47;;;;;;;4.45;1.85;;;2.00;68.80;;;;;;4971899;28;20042;-59
2021/01/29 10:08:18;;;;;;;5.85;2.00;;;1.90;68.80;;;;;;4976795;28;20135;-58
2021/01/29 10:11:08;;;;;;;2.92;1.70;;;1.90;68.90;;;;;;4977233;28;20906;-59
2021/01/29 10:13:39;;;;;;;5.13;1.90;;;2.00;68.90;;;;;;4974414;28;20556;-58
2021/01/29 10:16:23;;;;;;;5.22;1.90;;;1.90;69.10;;;;;;4970230;28;20545;-58
2021/01/29 10:19:11;;;;;;;2.72;1.63;;;1.90;68.70;;;;;;4977057;28;20046;-59
2021/01/29 10:21:58;;;;;;;6.00;1.80;;;2.00;69.20;;;;;;4969626;28;20045;-64
2021/01/29 10:25:14;;;;;;;7.68;2.63;;;2.00;68.40;;;;;;4972821;28;20404;-61
2021/01/29 10:27:45;;;;;;;2.42;1.60;;;1.90;68.80;;;;;;4908227;29;20123;-60
2021/01/29 10:30:31;;;;;;;1.92;1.30;;;1.70;69.20;;;;;;4914908;29;20036;-59
2021/01/29 10:33:17;;;;;;;9.10;1.40;;;1.80;70.50;;;;;;4931432;28;20566;-58
2021/01/29 10:36:11;;;;;;;4.45;1.70;;;1.80;68.90;;;;;;4976254;28;20081;-58
2021/01/29 10:38:52;;;;;;;10.88;2.10;;;1.80;68.60;;;;;;4969404;28;20769;-62
2021/01/29 10:41:23;;;;;;;5.82;1.85;;;1.90;67.90;;;;;;4976021;28;20049;-62
2021/01/29 10:44:10;;;;;;;4.57;1.70;;;1.90;67.90;;;;;;4977003;28;20034;-63
2021/01/29 10:47:10;;;;;;;5.93;1.92;;;1.90;67.60;;;;;;4972778;28;20037;-63
2021/01/29 10:49:58;;;;;;;4.10;2.05;;;2.10;69.00;;;;;;4972910;28;20038;-60
2021/01/29 10:52:38;;;;;;;4.90;2.10;;;2.30;67.60;;;;;;4976253;28;20041;-60
2021/01/29 10:55:25;;;;;;;4.90;2.00;;;2.40;66.20;;;;;;4973982;28;20597;-60
2021/01/29 10:58:03;;;;;;;5.28;2.15;;;2.50;66.40;;;;;;4976093;28;20052;-59
2021/01/29 11:00:33;;;;;;;4.20;1.90;;;2.60;65.30;;;;;;4979895;28;20030;-59
2021/01/29 11:03:11;;;;;;;4.20;2.05;;;2.50;66.20;;;;;;4978351;28;20133;-59
2021/01/29 11:05:45;;;;;;;6.45;2.13;;;2.50;65.00;;;;;;4979121;28;20088;-59
2021/01/29 11:08:20;;;;;;;9.15;2.20;;;2.50;64.30;;;;;;4979976;28;20044;-62
2021/01/29 11:10:51;;;;;;;3.72;2.00;;;2.40;65.70;;;;;;4979601;28;20030;-59
2021/01/29 11:13:43;;;;;;;8.45;1.98;;;2.50;66.00;;;;;;4973271;28;20126;-61
2021/01/29 11:16:13;;;;;;;2.90;1.95;;;2.60;65.00;;;;;;4977566;28;20026;-60
2021/01/29 11:18:39;;;;;;;2.72;1.98;;;2.70;65.20;;;;;;4979642;28;20085;-59
2021/01/29 11:21:41;;;;;;;3.05;1.52;;;2.70;64.90;;;;;;4978868;28;20784;-60
2021/01/29 11:24:25;;;;;;;3.33;2.13;;;2.80;65.30;;;;;;4979542;28;20035;-59
2021/01/29 11:27:45;;;;;;;6.00;2.50;;;2.60;62.80;;;;;;4979052;28;20070;-60
2021/01/29 11:30:27;;;;;;;2.05;1.55;;;2.20;62.80;;;;;;4900568;29;20110;-59
2021/01/29 11:32:59;;;;;;;6.00;2.22;;;2.20;64.50;;;;;;4971113;28;20581;-60
2021/01/29 11:35:37;;;;;;;3.33;1.73;;;2.00;65.50;;;;;;4979646;28;20061;-60
2021/01/29 11:38:12;;;;;;;2.65;1.70;;;2.30;66.40;;;;;;4978280;28;20121;-59
2021/01/29 11:40:55;;;;;;;6.47;2.00;;;2.50;64.40;;;;;;4979856;28;20039;-60
2021/01/29 11:43:52;;;;;;;3.28;1.45;;;2.40;62.40;;;;;;4974309;28;20030;-62
2021/01/29 11:46:32;;;;;;;3.13;2.05;;;2.30;63.40;;;;;;4974131;28;20053;-66
2021/01/29 11:49:15;;;;;;;2.53;1.77;;;2.30;62.80;;;;;;4979373;28;20076;-62
2021/01/29 11:51:51;;;;;;;2.75;1.90;;;2.50;63.60;;;;;;4979820;28;20038;-61
2021/01/29 11:54:44;;;;;;;4.82;1.80;;;2.60;62.70;;;;;;4973854;28;20038;-61
2021/01/29 11:57:33;;;;;;;2.17;1.70;;;2.60;61.40;;;;;;4978050;28;20685;-61
2021/01/29 12:00:13;;;;;;;3.65;1.85;;;2.80;61.90;;;;;;4977753;28;20042;-62
2021/01/29 12:03:06;;;;;;;3.50;1.88;;;3.00;61.90;;;;;;4978891;28;20477;-62
2021/01/29 12:06:01;;;;;;;3.78;2.00;;;3.10;61.20;;;;;;4974970;28;20046;-61
2021/01/29 12:08:38;;;;;;;4.05;2.22;;;3.20;61.60;;;;;;4975572;28;20042;-62
2021/01/29 12:11:20;;;;;;;4.93;2.42;;;3.30;61.30;;;;;;4977197;28;20034;-60
2021/01/29 12:14:17;;;;;;;3.25;2.17;;;3.20;61.20;;;;;;4978510;28;20035;-60
2021/01/29 12:16:46;;;;;;;4.13;1.95;;;3.10;60.50;;;;;;4978093;28;20038;-60
2021/01/29 12:19:32;;;;;;;3.55;2.10;;;3.10;60.40;;;;;;4978283;28;20046;-60
2021/01/29 12:22:32;;;;;;;4.43;1.90;;;2.90;59.70;;;;;;4977545;28;20067;-60
2021/01/29 12:25:28;;;;;;;6.80;2.22;;;2.70;60.20;;;;;;4977859;28;20078;-60
2021/01/29 12:28:12;;;;;;;3.55;2.20;;;2.60;60.30;;;;;;4978657;28;20034;-59
2021/01/29 12:31:15;;;;;;;3.97;2.15;;;2.60;61.80;;;;;;4979556;28;20482;-60
2021/01/29 12:33:51;;;;;;;3.83;1.83;;;2.60;60.90;;;;;;4954738;28;20674;-60
2021/01/29 12:36:20;;;;;;;3.23;1.93;;;2.70;61.40;;;;;;4978668;28;20068;-60
2021/01/29 12:38:57;;;;;;;7.25;1.83;;;2.80;60.70;;;;;;4979264;28;20038;-61
2021/01/29 12:41:47;;;;;;;3.10;1.60;;;2.80;59.70;;;;;;4978825;28;20093;-63
2021/01/29 12:44:36;;;;;;;4.97;1.95;;;2.70;59.50;;;;;;4973885;28;20050;-61
2021/01/29 12:47:23;;;;;;;6.72;2.17;;;2.50;58.70;;;;;;4944647;28;20050;-60
2021/01/29 12:50:13;;;;;;;3.42;1.75;;;2.40;59.40;;;;;;4971104;28;20774;-60
2021/01/29 12:52:49;;;;;;;4.55;1.65;;;2.50;59.20;;;;;;4975088;28;20113;-61
2021/01/29 12:55:21;;;;;;;2.88;1.98;;;2.40;58.70;;;;;;4966434;28;20145;-61
2021/01/29 12:58:09;;;;;;;2.03;1.27;;;2.60;58.50;;;;;;4976248;28;20120;-60
2021/01/29 13:00:40;;;;;;;4.50;1.95;;;2.70;59.50;;;;;;4972911;28;20038;-60
2021/01/29 13:03:30;;;;;;;7.15;1.63;;;2.80;58.00;;;;;;4976898;28;20046;-62
2021/01/29 13:06:14;;;;;;;2.95;1.35;;;2.90;56.20;;;;;;4976134;28;20181;-60
2021/01/29 13:09:09;;;;;;;6.93;2.20;;;2.90;56.30;;;;;;4976464;28;20118;-62
2021/01/29 13:11:49;;;;;;;3.25;1.60;;;3.00;57.20;;;;;;4973575;28;20073;-61
2021/01/29 13:14:47;;;;;;;4.05;1.48;;;3.10;56.70;;;;;;4971495;28;20089;-61
2021/01/29 13:17:26;;;;;;;3.08;1.52;;;3.00;55.20;;;;;;4906334;28;20050;-61
2021/01/29 13:20:18;;;;;;;2.33;1.38;;;3.10;55.70;;;;;;4977023;28;20045;-61
2021/01/29 13:22:49;;;;;;;3.35;1.23;;;3.10;54.60;;;;;;4972106;28;20092;-61
2021/01/29 13:25:19;;;;;;;4.95;1.70;;;3.00;55.40;;;;;;4974543;28;20039;-61
2021/01/29 13:28:00;;;;;;;3.90;1.52;;;3.00;54.40;;;;;;4975524;28;20698;-61
2021/01/29 13:30:28;;;;;;;3.15;1.60;;;2.90;55.10;;;;;;4972940;28;20042;-59
2021/01/29 13:32:56;;;;;;;5.28;1.73;;;2.90;55.90;;;;;;4975909;28;20045;-61
2021/01/29 13:35:34;;;;;;;2.35;1.42;;;2.80;55.00;;;;;;4976422;28;20145;-61
2021/01/29 13:38:12;;;;;;;2.65;1.60;;;2.80;54.00;;;;;;4975112;28;20030;-61
2021/01/29 13:40:39;;;;;;;3.78;1.70;;;2.80;54.40;;;;;;4976520;28;20038;-62
2021/01/29 13:43:14;;;;;;;4.22;1.73;;;2.90;55.10;;;;;;4977079;28;20064;-60
2021/01/29 13:45:40;;;;;;;3.22;1.70;;;3.00;54.60;;;;;;4974489;28;20843;-60
2021/01/29 13:48:12;;;;;;;4.05;1.50;;;3.00;54.50;;;;;;4977770;28;20173;-59
2021/01/29 13:50:41;;;;;;;6.00;2.20;;;3.20;54.70;;;;;;4976228;28;20061;-60
2021/01/29 13:53:12;;;;;;;4.43;2.10;;;3.20;54.20;;;;;;4976210;28;20116;-59
2021/01/29 13:55:41;;;;;;;3.72;1.95;;;3.30;55.00;;;;;;4974992;28;20065;-59
2021/01/29 13:58:17;;;;;;;3.88;2.05;;;3.40;54.50;;;;;;4975992;28;20042;-61
2021/01/29 14:00:52;;;;;;;5.50;2.03;;;3.30;54.60;;;;;;4976134;28;20090;-59
2021/01/29 14:03:26;;;;;;;2.72;1.90;;;3.20;54.10;;;;;;4970735;28;20389;-60
2021/01/29 14:05:52;;;;;;;4.97;2.53;;;3.20;54.50;;;;;;4975096;28;20042;-60
2021/01/29 14:08:18;;;;;;;4.85;2.05;;;3.40;54.50;;;;;;4975517;28;20063;-61
2021/01/29 14:11:07;;;;;;;3.47;2.13;;;3.40;54.20;;;;;;4974851;28;20161;-59
2021/01/29 14:14:03;;;;;;;5.43;2.35;;;3.40;54.80;;;;;;4975665;28;20042;-60
2021/01/29 14:16:59;;;;;;;3.33;2.10;;;3.30;53.40;;;;;;4971982;28;20525;-60
2021/01/29 14:19:41;;;;;;;3.08;1.75;;;3.00;53.80;;;;;;4972045;28;20279;-59
2021/01/29 14:22:15;;;;;;;6.60;2.38;;;2.90;55.20;;;;;;4975572;28;20410;-59
2021/01/29 14:25:26;;;;;;;2.65;1.75;;;2.80;55.50;;;;;;4975602;28;20121;-59